Time;durP1;ratioP1;P1;durP2;ratioP2;P2;SDS_P1;SDS_P2;PMS_P1;PMS_P2;Temp;Humidity;BMP_temperature;BMP_pressure;BME280_temperature;BME280_humidity;BME280_pressure;Samples;Min_cycle;Max_cycle;Signal;HPM_P1;HPM_P2
2023/10/13 00:02:01;;;;;;;9.40;5.70;;;;;;;13.72;100.00;100510.80;105047;1259;74312;-61
2023/10/13 00:04:32;;;;;;;10.60;6.50;;;;;;;13.74;100.00;100508.41;104971;1263;81497;-60
2023/10/13 00:07:02;;;;;;;10.00;5.80;;;;;;;13.74;100.00;100505.26;104986;1259;71528;-61
2023/10/13 00:09:37;;;;;;;10.70;6.20;;;;;;;13.75;100.00;100497.99;104967;1263;69169;-61
2023/10/13 00:12:09;;;;;;;11.00;6.50;;;;;;;13.79;100.00;100498.34;105014;1264;69202;-60
2023/10/13 00:14:37;;;;;;;10.10;6.60;;;;;;;13.79;100.00;100493.04;105040;1262;72912;-61
2023/10/13 00:17:15;;;;;;;10.30;6.20;;;;;;;13.80;100.00;100487.58;104966;1259;82680;-60
2023/10/13 00:19:45;;;;;;;10.40;6.50;;;;;;;13.77;100.00;100488.40;105009;1258;73560;-60
2023/10/13 00:22:19;;;;;;;10.70;6.30;;;;;;;13.76;100.00;100486.52;105023;1259;69154;-60
2023/10/13 00:24:51;;;;;;;7.90;5.70;;;;;;;13.76;100.00;100486.86;104945;1259;69194;-61
2023/10/13 00:27:29;;;;;;;11.90;5.70;;;;;;;13.78;100.00;100487.30;104994;1259;74053;-61
2023/10/13 00:30:22;;;;;;;11.10;6.10;;;;;;;13.80;100.00;100485.81;105014;1259;81638;-61
2023/10/13 00:32:55;;;;;;;9.30;6.20;;;;;;;13.81;100.00;100486.29;105040;1261;71932;-61
2023/10/13 00:35:35;;;;;;;12.20;6.00;;;;;;;13.81;100.00;100483.63;105014;1259;69189;-61
2023/10/13 00:38:12;;;;;;;10.90;6.10;;;;;;;13.80;100.00;100484.41;104999;1259;69190;-61
2023/10/13 00:41:49;;;;;;;11.90;7.20;;;;;;;13.80;100.00;100482.09;105134;1260;74004;-61
2023/10/13 00:43:34;;;;;;;15.50;8.60;;;;;;;13.77;100.00;100492.83;104910;1260;81967;-61
2023/10/13 00:48:42;;;;;;;16.00;9.20;;;;;;;13.72;100.00;100496.59;104931;1264;69190;-61
2023/10/13 00:51:58;;;;;;;14.50;8.80;;;;;;;13.73;100.00;100497.73;104985;1260;69199;-61
2023/10/13 00:54:02;;;;;;;;;;;;;;;13.76;100.00;100494.44;104969;1259;73675;-61
2023/10/13 00:56:30;;;;;;;18.30;10.10;;;;;;;13.79;100.00;100494.13;104980;1261;82838;-61
2023/10/13 00:59:02;;;;;;;23.40;10.30;;;;;;;13.78;100.00;100497.52;105042;1259;72501;-61
2023/10/13 01:01:32;;;;;;;16.80;10.40;;;;;;;13.79;100.00;100491.48;105087;1258;69191;-60
2023/10/13 01:04:04;;;;;;;23.10;10.90;;;;;;;13.80;100.00;100494.42;105038;1260;69206;-61
2023/10/13 01:06:33;;;;;;;16.50;9.90;;;;;;;13.80;100.00;100492.81;105040;1259;73430;-61
2023/10/13 01:11:52;;;;;;;16.50;10.70;;;;;;;13.82;100.00;100496.23;105004;1259;72043;-60
2023/10/13 01:14:23;;;;;;;17.10;10.60;;;;;;;13.84;100.00;100494.77;104968;1264;69159;-61
2023/10/13 01:16:52;;;;;;;18.00;10.30;;;;;;;13.86;100.00;100491.84;105089;1264;69144;-61
2023/10/13 01:19:24;;;;;;;18.10;10.50;;;;;;;13.88;100.00;100490.85;105092;1263;72570;-61
2023/10/13 01:22:01;;;;;;;15.00;10.40;;;;;;;13.89;100.00;100493.81;105019;1259;81863;-61
2023/10/13 01:24:37;;;;;;;20.40;10.50;;;;;;;13.91;100.00;100498.09;105035;1259;72465;-61
2023/10/13 01:27:20;;;;;;;17.90;10.10;;;;;;;13.93;100.00;100498.02;105017;1260;69183;-61
2023/10/13 01:29:52;;;;;;;17.00;11.20;;;;;;;13.91;100.00;100498.61;105007;1259;69741;-61
2023/10/13 01:32:22;;;;;;;15.60;11.00;;;;;;;13.91;100.00;100496.35;105041;1259;72358;-61
2023/10/13 01:34:56;;;;;;;21.50;11.30;;;;;;;13.90;100.00;100498.69;105046;1259;81690;-61
2023/10/13 01:37:25;;;;;;;20.90;10.40;;;;;;;13.89;100.00;100497.86;104973;1259;72018;-61
2023/10/13 01:39:53;;;;;;;17.60;10.20;;;;;;;13.89;100.00;100497.33;104951;1264;69250;-61
2023/10/13 01:42:21;;;;;;;15.80;9.90;;;;;;;13.87;100.00;100500.02;104953;1263;69218;-61
2023/10/13 01:44:51;;;;;;;17.00;10.40;;;;;;;13.90;100.00;100494.27;105024;1264;72922;-61
2023/10/13 01:47:22;;;;;;;16.80;10.70;;;;;;;13.90;100.00;100504.84;105088;1259;81351;-61
2023/10/13 01:49:50;;;;;;;15.50;9.60;;;;;;;13.86;100.00;100506.44;104986;1259;71783;-60
2023/10/13 01:52:19;;;;;;;18.30;10.30;;;;;;;13.86;100.00;100504.86;105034;1263;69864;-61
2023/10/13 01:54:50;;;;;;;18.10;10.50;;;;;;;13.84;100.00;100506.32;104975;1259;69077;-61
2023/10/13 01:57:19;;;;;;;14.20;10.20;;;;;;;13.83;100.00;100505.16;104982;1259;74993;-61
2023/10/13 01:59:48;;;;;;;15.30;9.70;;;;;;;13.82;100.00;100502.89;104962;1263;82817;-61
2023/10/13 02:02:52;;;;;;;16.30;9.00;;;;;;;13.82;100.00;100499.20;104981;1261;72897;-61
2023/10/13 02:05:15;;;;;;;12.80;9.40;;;;;;;13.82;100.00;100500.45;105009;1260;69272;-61
2023/10/13 02:07:47;;;;;;;14.20;10.00;;;;;;;13.82;100.00;100501.50;105001;1263;69213;-61
2023/10/13 02:10:15;;;;;;;18.60;9.90;;;;;;;13.82;100.00;100495.35;104975;1259;73949;-61
2023/10/13 02:12:43;;;;;;;13.70;8.80;;;;;;;13.81;100.00;100497.19;105082;1263;81498;-61
2023/10/13 02:15:21;;;;;;;14.60;9.60;;;;;;;13.82;100.00;100493.98;104987;1263;73093;-60
2023/10/13 02:17:51;;;;;;;12.30;8.80;;;;;;;13.85;100.00;100500.15;104993;1264;69209;-61
2023/10/13 02:20:26;;;;;;;13.70;9.90;;;;;;;13.85;100.00;100498.38;104993;1259;69120;-61
2023/10/13 02:22:54;;;;;;;12.50;8.20;;;;;;;13.85;100.00;100495.06;105051;1259;72165;-61
2023/10/13 02:28:14;;;;;;;16.60;9.30;;;;;;;13.87;100.00;100496.56;104985;1260;71134;-61
2023/10/13 02:30:48;;;;;;;14.60;9.40;;;;;;;13.86;100.00;100497.48;105034;1260;69134;-61
2023/10/13 02:33:29;;;;;;;14.30;9.00;;;;;;;13.85;100.00;100498.55;105038;1258;69247;-60
2023/10/13 02:36:05;;;;;;;23.00;9.40;;;;;;;13.86;100.00;100499.92;105043;1259;73941;-61
2023/10/13 02:41:18;;;;;;;12.80;8.60;;;;;;;13.88;100.00;100495.42;104954;1259;73034;-61
2023/10/13 02:43:46;;;;;;;12.70;8.20;;;;;;;13.90;100.00;100497.98;105030;1263;69124;-60
2023/10/13 02:46:16;;;;;;;13.50;8.20;;;;;;;13.89;100.00;100499.95;105056;1259;69198;-60
2023/10/13 02:48:46;;;;;;;12.50;9.00;;;;;;;13.87;100.00;100502.17;105071;1259;74639;-61
2023/10/13 02:51:15;;;;;;;14.70;9.00;;;;;;;13.87;100.00;100499.55;105005;1259;82058;-61
2023/10/13 02:53:48;;;;;;;14.10;8.90;;;;;;;13.86;100.00;100496.95;105040;1259;72058;-61
2023/10/13 02:56:20;;;;;;;13.30;8.20;;;;;;;13.84;100.00;100497.90;105055;1264;69199;-61
2023/10/13 02:59:08;;;;;;;15.80;8.40;;;;;;;13.83;100.00;100501.66;105006;1259;69200;-61
2023/10/13 03:01:36;;;;;;;12.80;7.90;;;;;;;13.82;100.00;100500.63;105020;1259;73552;-61
2023/10/13 03:04:12;;;;;;;15.90;8.60;;;;;;;13.84;100.00;100501.08;104976;1260;81834;-61
2023/10/13 03:06:41;;;;;;;15.50;7.90;;;;;;;13.87;100.00;100504.63;104968;1260;71788;-61
2023/10/13 03:09:21;;;;;;;12.70;8.30;;;;;;;13.86;100.00;100504.70;105068;1261;69186;-61
2023/10/13 03:11:50;;;;;;;15.00;9.00;;;;;;;13.83;100.00;100506.18;105021;1260;69190;-61
2023/10/13 03:14:24;;;;;;;12.50;8.50;;;;;;;13.83;100.00;100506.73;105094;1260;74777;-61
2023/10/13 03:16:54;;;;;;;12.40;7.50;;;;;;;13.84;100.00;100508.25;105067;1263;81749;-61
2023/10/13 03:19:24;;;;;;;14.10;9.10;;;;;;;13.86;100.00;100505.55;105030;1260;72015;-61
2023/10/13 03:22:12;;;;;;;12.00;8.00;;;;;;;13.88;100.00;100503.50;105019;1263;69174;-61
2023/10/13 03:24:46;;;;;;;14.20;8.30;;;;;;;13.90;100.00;100503.09;105019;1259;69171;-60
2023/10/13 03:27:23;;;;;;;15.00;9.00;;;;;;;13.88;100.00;100499.99;105171;1259;74634;-60
2023/10/13 03:29:54;;;;;;;13.50;8.60;;;;;;;13.87;100.00;100497.45;104991;1263;81798;-59
2023/10/13 03:32:26;;;;;;;10.60;7.70;;;;;;;13.84;100.00;100498.23;105001;1259;73011;-59
2023/10/13 03:35:11;;;;;;;15.40;9.10;;;;;;;13.83;100.00;100497.96;105010;1264;69139;-59
2023/10/13 03:37:40;;;;;;;17.70;8.90;;;;;;;13.79;100.00;100501.29;105009;1259;69084;-59
2023/10/13 03:43:07;;;;;;;14.10;8.40;;;;;;;13.75;100.00;100503.13;105077;1264;82833;-59
2023/10/13 03:45:39;;;;;;;13.20;9.00;;;;;;;13.76;100.00;100502.84;105023;1259;73045;-59
2023/10/13 03:51:15;;;;;;;11.90;7.80;;;;;;;13.75;100.00;100497.29;104868;1264;69171;-59
2023/10/13 03:53:52;;;;;;;13.40;8.10;;;;;;;13.75;100.00;100494.32;105018;1260;74906;-59
2023/10/13 03:56:27;;;;;;;14.00;8.20;;;;;;;13.76;100.00;100495.86;105026;1259;82674;-59
2023/10/13 03:59:06;;;;;;;13.50;8.10;;;;;;;13.75;100.00;100492.91;104991;1259;73114;-59
2023/10/13 04:01:46;;;;;;;13.20;8.00;;;;;;;13.76;100.00;100493.92;105005;1264;69142;-59
2023/10/13 04:04:34;;;;;;;12.10;7.60;;;;;;;13.75;100.00;100490.80;105011;1259;69126;-59
2023/10/13 04:17:26;;;;;;;16.00;9.20;;;;;;;13.70;100.00;100477.17;104979;1263;69120;-59
2023/10/13 04:28:34;;;;;;;13.50;8.20;;;;;;;13.68;100.00;100469.17;104975;1264;69142;-59
2023/10/13 04:31:13;;;;;;;14.30;8.60;;;;;;;13.67;100.00;100463.27;105107;1259;69186;-62
2023/10/13 04:34:02;;;;;;;14.10;8.20;;;;;;;13.69;100.00;100458.09;105074;1262;72798;-60
2023/10/13 04:39:00;;;;;;;14.40;7.70;;;;;;;13.74;100.00;100455.58;105006;1260;70625;-60
2023/10/13 04:41:42;;;;;;;;;;;;;;;13.75;100.00;100444.98;105052;1260;69192;-59
2023/10/13 04:49:35;;;;;;;9.90;7.30;;;;;;;13.71;100.00;100448.16;105067;1259;80833;-60
2023/10/13 04:54:53;;;;;;;15.10;8.60;;;;;;;13.69;100.00;100434.73;105008;1262;69135;-60
2023/10/13 05:00:55;;;;;;;11.10;7.70;;;;;;;13.67;100.00;100443.43;104681;1266;73647;-60
2023/10/13 05:03:52;;;;;;;11.50;7.60;;;;;;;13.69;100.00;100447.52;104697;1266;81803;-60
2023/10/13 05:45:36;;;;;;;10.70;7.20;;;;;;;13.41;100.00;100458.38;105048;1259;80851;-61
2023/10/13 05:48:12;;;;;;;12.50;7.30;;;;;;;13.39;100.00;100459.89;105215;1264;73441;-60
2023/10/13 06:29:38;;;;;;;16.10;9.80;;;;;;;13.32;100.00;100475.64;104981;1260;71323;-59
2023/10/13 06:32:12;;;;;;;14.60;9.10;;;;;;;13.33;100.00;100483.30;105025;1259;69167;-59
2023/10/13 06:34:45;;;;;;;13.30;9.20;;;;;;;13.34;100.00;100487.66;105093;1260;69192;-60
2023/10/13 06:37:30;;;;;;;14.60;8.80;;;;;;;13.35;100.00;100482.69;105054;1259;75150;-60
2023/10/13 06:40:14;;;;;;;18.60;10.20;;;;;;;13.37;100.00;100487.20;105065;1260;81614;-60
2023/10/13 06:42:42;;;;;;;16.80;10.70;;;;;;;13.39;100.00;100491.65;105055;1260;71681;-59
2023/10/13 06:45:11;;;;;;;15.40;9.80;;;;;;;13.42;100.00;100489.75;105090;1262;69125;-60
2023/10/13 06:47:42;;;;;;;16.20;9.80;;;;;;;13.45;100.00;100491.73;105054;1261;69199;-59
2023/10/13 06:50:24;;;;;;;14.30;9.30;;;;;;;13.47;100.00;100492.15;105053;1260;74906;-59
2023/10/13 06:52:54;;;;;;;14.10;9.90;;;;;;;13.49;100.00;100492.39;105051;1260;82871;-60
2023/10/13 06:55:34;;;;;;;18.40;9.80;;;;;;;13.52;100.00;100493.29;105016;1260;71769;-59
2023/10/13 06:58:06;;;;;;;20.80;9.90;;;;;;;13.56;100.00;100492.61;105040;1258;69120;-60
2023/10/13 07:00:34;;;;;;;14.30;9.60;;;;;;;13.60;100.00;100494.34;105052;1262;69241;-59
2023/10/13 07:03:26;;;;;;;17.10;10.40;;;;;;;13.65;100.00;100499.35;105044;1260;75077;-60
2023/10/13 07:05:53;;;;;;;16.90;9.80;;;;;;;13.71;100.00;100500.14;105114;1262;82804;-60
2023/10/13 07:08:23;;;;;;;15.70;10.10;;;;;;;13.76;100.00;100498.50;104970;1260;71469;-60
2023/10/13 07:11:05;;;;;;;21.20;10.80;;;;;;;13.81;100.00;100501.56;105022;1262;69132;-60
2023/10/13 07:13:39;;;;;;;15.10;9.90;;;;;;;13.87;100.00;100506.58;105046;1262;69132;-60
2023/10/13 07:16:12;;;;;;;15.30;10.30;;;;;;;13.92;100.00;100512.08;105045;1260;73938;-59
2023/10/13 07:18:56;;;;;;;20.00;10.50;;;;;;;13.98;100.00;100503.70;105051;1259;82857;-60
2023/10/13 07:21:33;;;;;;;18.00;11.40;;;;;;;14.04;100.00;100501.85;105048;1262;72096;-59
2023/10/13 07:24:08;;;;;;;13.80;10.10;;;;;;;14.10;100.00;100504.90;105046;1262;69148;-59
2023/10/13 07:26:42;;;;;;;13.90;10.70;;;;;;;14.15;100.00;100501.65;105117;1262;69266;-59
2023/10/13 07:29:12;;;;;;;14.80;10.50;;;;;;;14.22;100.00;100499.02;105071;1262;73683;-60
2023/10/13 07:31:44;;;;;;;20.00;10.80;;;;;;;14.33;100.00;100497.03;105074;1262;81878;-59
2023/10/13 07:34:26;;;;;;;18.60;10.60;;;;;;;14.49;100.00;100484.08;105008;1260;72209;-60
2023/10/13 07:36:59;;;;;;;14.20;10.20;;;;;;;14.68;100.00;100475.76;105035;1260;69198;-59
2023/10/13 07:39:33;;;;;;;14.60;10.80;;;;;;;14.83;100.00;100472.28;104989;1265;69245;-60
2023/10/13 07:42:07;;;;;;;14.80;10.60;;;;;;;15.00;100.00;100472.61;105068;1262;74905;-60
2023/10/13 07:44:36;;;;;;;14.90;9.90;;;;;;;15.18;100.00;100468.09;105076;1259;83761;-59
2023/10/13 07:47:07;;;;;;;15.40;10.10;;;;;;;15.34;100.00;100461.92;105030;1260;72129;-60
2023/10/13 07:49:37;;;;;;;15.10;10.20;;;;;;;15.42;100.00;100458.14;105062;1262;69133;-59
2023/10/13 07:52:23;;;;;;;18.00;10.00;;;;;;;15.47;100.00;100455.76;105068;1259;69129;-59
2023/10/13 07:55:19;;;;;;;14.70;9.30;;;;;;;15.53;100.00;100463.20;105065;1260;73926;-60
2023/10/13 07:57:55;;;;;;;16.70;10.20;;;;;;;15.61;100.00;100466.23;105030;1261;82742;-60
2023/10/13 08:00:38;;;;;;;14.30;10.10;;;;;;;15.71;100.00;100462.00;105069;1263;73106;-59
2023/10/13 08:03:17;;;;;;;15.10;9.50;;;;;;;15.79;100.00;100467.52;105037;1259;69206;-59
2023/10/13 08:06:40;;;;;;;14.80;10.10;;;;;;;15.83;100.00;100470.85;105049;1260;69126;-59
2023/10/13 08:08:44;;;;;;;15.10;10.20;;;;;;;15.91;100.00;100475.52;104971;1260;75694;-59
2023/10/13 08:13:58;;;;;;;15.50;10.10;;;;;;;16.10;100.00;100468.01;105004;1259;73076;-59
2023/10/13 08:16:55;;;;;;;17.30;10.00;;;;;;;16.25;100.00;100465.54;105010;1262;69129;-59
2023/10/13 08:19:31;;;;;;;18.20;10.50;;;;;;;16.40;100.00;100460.78;105038;1262;69070;-60
2023/10/13 08:27:34;;;;;;;11.60;9.40;;;;;;;16.89;100.00;100450.05;104991;1262;70210;-60
2023/10/13 08:32:58;;;;;;;15.50;9.70;;;;;;;17.28;100.00;100450.91;105063;1262;69141;-59
2023/10/13 08:35:35;;;;;;;13.00;8.40;;;;;;;17.41;100.00;100451.35;105055;1262;73845;-59
2023/10/13 08:38:04;;;;;;;14.60;9.10;;;;;;;17.51;100.00;100445.34;105060;1262;82879;-59
2023/10/13 08:43:51;;;;;;;12.30;7.90;;;;;;;17.66;100.00;100439.96;105004;1263;69590;-59
2023/10/13 08:46:31;;;;;;;14.90;9.20;;;;;;;17.71;100.00;100434.35;105109;1259;69173;-59
2023/10/13 08:49:14;;;;;;;12.40;8.20;;;;;;;17.76;100.00;100432.60;105041;1262;73811;-60
2023/10/13 08:51:49;;;;;;;11.50;7.70;;;;;;;17.87;100.00;100429.95;105062;1262;81512;-60
2023/10/13 08:54:33;;;;;;;14.70;7.80;;;;;;;18.02;100.00;100432.27;105068;1260;73102;-60
2023/10/13 08:57:19;;;;;;;10.30;7.50;;;;;;;18.16;100.00;100429.59;105022;1262;69204;-60
2023/10/13 08:59:55;;;;;;;10.00;6.80;;;;;;;18.29;100.00;100429.58;105047;1259;69205;-60
2023/10/13 09:08:08;;;;;;;7.70;5.10;;;;;;;18.83;100.00;100419.48;105027;1260;73054;-60
2023/10/13 09:11:05;;;;;;;8.40;5.20;;;;;;;19.02;100.00;100414.39;105036;1260;69190;-60
2023/10/13 09:13:46;;;;;;;8.50;5.80;;;;;;;19.22;100.00;100416.31;105050;1262;69181;-60
2023/10/13 09:17:07;;;;;;;11.00;6.70;;;;;;;19.38;100.00;100418.64;105031;1264;74106;-60
2023/10/13 09:19:06;;;;;;;8.40;5.00;;;;;;;19.55;100.00;100415.48;104996;1262;82707;-60
2023/10/13 09:24:27;;;;;;;10.20;4.90;;;;;;;19.80;100.00;100417.74;105045;1262;69142;-60
2023/10/13 09:27:01;;;;;;;4.50;3.40;;;;;;;20.02;100.00;100423.11;105103;1262;69740;-60
2023/10/13 09:29:29;;;;;;;4.10;3.10;;;;;;;20.07;99.37;100426.83;105054;1259;72656;-60
2023/10/13 09:32:03;;;;;;;7.00;3.50;;;;;;;19.92;98.36;100420.92;104985;1262;81704;-60
2023/10/13 09:34:33;;;;;;;6.60;4.00;;;;;;;19.89;98.34;100421.64;105071;1260;71921;-60
2023/10/13 09:37:04;;;;;;;4.70;3.30;;;;;;;19.90;97.73;100421.78;105041;1262;69111;-60
2023/10/13 09:39:52;;;;;;;8.70;3.20;;;;;;;19.96;97.16;100413.88;105118;1262;69158;-60
2023/10/13 09:42:23;;;;;;;7.30;3.50;;;;;;;20.14;96.63;100400.05;105034;1262;73682;-60
2023/10/13 09:44:55;;;;;;;4.90;3.10;;;;;;;20.33;96.21;100395.38;105042;1260;82696;-60
2023/10/13 09:47:29;;;;;;;6.10;2.80;;;;;;;20.53;95.53;100405.35;105048;1260;73226;-60
2023/10/13 09:50:05;;;;;;;4.00;2.80;;;;;;;20.69;94.49;100399.50;105040;1262;69140;-60
2023/10/13 09:52:37;;;;;;;4.10;3.00;;;;;;;20.93;94.30;100392.40;105063;1259;69131;-60
2023/10/13 09:55:13;;;;;;;3.40;3.00;;;;;;;21.16;93.39;100393.94;105035;1262;74887;-60
2023/10/13 09:57:48;;;;;;;6.00;3.90;;;;;;;21.41;92.98;100390.72;105014;1262;81601;-60
2023/10/13 10:06:03;;;;;;;6.70;4.70;;;;;;;21.88;90.71;100380.92;105084;1262;69131;-60
2023/10/13 10:08:33;;;;;;;6.80;5.00;;;;;;;22.01;90.20;100375.19;105080;1262;72862;-60
2023/10/13 10:11:31;;;;;;;7.50;4.60;;;;;;;22.11;89.75;100367.21;105073;1262;81674;-60
2023/10/13 10:14:14;;;;;;;7.40;5.00;;;;;;;22.17;88.80;100363.49;105023;1263;72817;-61
2023/10/13 10:16:59;;;;;;;5.90;4.50;;;;;;;22.18;87.73;100359.01;105038;1261;69219;-62
2023/10/13 10:19:35;;;;;;;7.20;5.20;;;;;;;22.18;87.37;100355.73;105095;1260;69205;-60
2023/10/13 10:22:16;;;;;;;9.50;4.60;;;;;;;22.29;86.92;100358.52;105072;1263;75112;-60
2023/10/13 10:24:56;;;;;;;6.00;4.30;;;;;;;22.45;86.19;100362.10;105081;1260;80580;-60
2023/10/13 10:27:29;;;;;;;5.30;3.90;;;;;;;22.38;85.19;100361.65;105064;1262;73209;-60
2023/10/13 10:29:58;;;;;;;6.00;4.20;;;;;;;22.33;84.54;100360.02;105037;1263;69225;-60
2023/10/13 10:32:34;;;;;;;6.90;4.30;;;;;;;22.27;84.03;100352.47;105148;1262;69199;-61
2023/10/13 10:35:20;;;;;;;4.40;3.60;;;;;;;22.23;83.43;100350.56;105052;1262;74325;-60
2023/10/13 10:37:49;;;;;;;4.80;4.10;;;;;;;22.10;82.54;100344.13;105058;1262;81689;-60
2023/10/13 10:41:04;;;;;;;6.70;4.30;;;;;;;22.02;82.32;100337.75;105077;1264;71709;-60
2023/10/13 10:43:08;;;;;;;7.30;3.90;;;;;;;21.93;82.31;100334.80;104929;1269;69173;-60
2023/10/13 10:45:59;;;;;;;5.30;4.40;;;;;;;21.88;82.33;100336.08;105021;1260;69206;-60
2023/10/13 10:48:38;;;;;;;8.00;4.20;;;;;;;21.81;82.01;100339.70;105060;1263;74849;-60
2023/10/13 10:51:07;;;;;;;5.90;4.20;;;;;;;21.73;81.81;100327.19;105044;1262;81570;-60
2023/10/13 10:53:43;;;;;;;8.40;4.40;;;;;;;21.67;81.80;100323.83;105022;1263;72048;-60
2023/10/13 10:59:00;;;;;;;7.50;4.40;;;;;;;21.65;81.86;100316.66;105002;1263;69187;-60
2023/10/13 11:01:46;;;;;;;5.90;3.90;;;;;;;21.68;81.74;100321.98;105123;1259;74883;-60
2023/10/13 11:06:56;;;;;;;5.20;3.90;;;;;;;21.70;81.40;100308.77;105049;1263;73136;-60
2023/10/13 11:12:06;;;;;;;7.50;4.00;;;;;;;21.53;80.49;100298.70;105077;1262;69116;-60
2023/10/13 11:14:34;;;;;;;7.80;3.80;;;;;;;21.46;80.44;100292.55;105072;1264;74222;-60
2023/10/13 11:17:18;;;;;;;5.50;3.70;;;;;;;21.45;80.46;100289.27;105095;1261;81929;-60
2023/10/13 11:19:47;;;;;;;6.20;3.80;;;;;;;21.43;80.24;100281.90;104971;1262;71845;-60
2023/10/13 11:22:31;;;;;;;5.20;4.20;;;;;;;21.41;80.10;100278.67;105024;1261;69155;-60
2023/10/13 11:25:11;;;;;;;5.30;3.70;;;;;;;21.41;80.08;100276.63;104967;1264;69234;-60
2023/10/13 11:27:44;;;;;;;5.90;4.50;;;;;;;21.43;80.03;100277.13;105004;1263;75131;-60
2023/10/13 11:30:14;;;;;;;5.40;4.30;;;;;;;21.45;80.02;100268.58;105042;1262;82670;-60
2023/10/13 11:32:42;;;;;;;4.90;4.40;;;;;;;21.51;80.32;100265.28;104951;1262;71819;-60
2023/10/13 11:35:20;;;;;;;6.20;4.70;;;;;;;21.55;80.07;100259.34;105019;1261;69198;-60
2023/10/13 11:40:59;;;;;;;7.90;4.70;;;;;;;21.67;79.87;100246.26;104811;1264;75154;-60
2023/10/13 11:43:27;;;;;;;7.50;5.60;;;;;;;21.71;79.42;100248.80;105017;1263;82852;-60
2023/10/13 11:46:12;;;;;;;9.70;5.20;;;;;;;21.72;79.32;100248.17;104949;1263;73205;-60
2023/10/13 11:48:54;;;;;;;5.90;5.10;;;;;;;21.68;79.29;100243.30;104962;1264;69159;-60
2023/10/13 11:51:32;;;;;;;10.30;5.30;;;;;;;21.71;79.34;100238.30;105001;1262;69174;-60
2023/10/13 11:54:00;;;;;;;7.20;5.50;;;;;;;21.80;79.12;100232.20;104959;1262;73599;-60
2023/10/13 11:56:28;;;;;;;10.00;5.40;;;;;;;21.86;78.71;100226.32;104973;1263;81638;-60
2023/10/13 11:59:01;;;;;;;8.00;5.40;;;;;;;21.99;78.99;100219.70;105012;1260;71782;-60
2023/10/13 12:07:26;;;;;;;8.00;5.40;;;;;;;21.88;78.61;100216.75;104777;1268;75048;-60
2023/10/13 12:12:24;;;;;;;8.50;5.40;;;;;;;21.77;78.23;100216.23;105077;1263;71998;-60
2023/10/13 12:14:57;;;;;;;8.90;5.80;;;;;;;21.69;78.73;100214.95;105106;1259;69190;-60
2023/10/13 12:17:34;;;;;;;5.90;5.00;;;;;;;21.66;79.04;100206.15;105037;1261;69224;-61
2023/10/13 12:20:09;;;;;;;11.20;5.20;;;;;;;21.64;79.03;100205.63;105040;1271;74196;-60
2023/10/13 12:22:51;;;;;;;8.50;4.80;;;;;;;21.58;78.93;100198.14;105058;1261;83749;-60
2023/10/13 12:25:25;;;;;;;7.70;5.10;;;;;;;21.58;79.17;100197.25;105037;1263;71838;-60
2023/10/13 12:27:57;;;;;;;6.80;4.80;;;;;;;21.54;79.29;100198.34;105049;1263;69091;-60
2023/10/13 12:30:36;;;;;;;9.50;5.40;;;;;;;21.48;79.45;100198.14;105015;1260;69128;-60
2023/10/13 12:33:09;;;;;;;6.30;5.40;;;;;;;21.47;79.88;100191.48;105074;1261;73555;-60
2023/10/13 12:36:03;;;;;;;8.40;6.00;;;;;;;21.50;80.12;100188.89;105033;1262;81773;-60
2023/10/13 12:57:25;;;;;;;5.40;3.10;;;;;;;21.23;80.33;100175.02;105036;1263;69196;-59
2023/10/13 12:59:54;;;;;;;6.10;3.60;;;;;;;21.18;80.39;100172.89;105096;1263;74028;-58
2023/10/13 13:02:26;;;;;;;3.90;2.30;;;;;;;21.12;80.46;100170.20;105088;1261;82853;-59
2023/10/13 13:05:06;;;;;;;4.80;2.80;;;;;;;21.07;80.52;100166.91;105089;1261;73131;-59
2023/10/13 13:07:43;;;;;;;3.20;2.40;;;;;;;20.99;80.28;100168.13;105058;1263;69189;-58
2023/10/13 13:10:13;;;;;;;2.90;2.10;;;;;;;20.90;80.36;100163.16;105052;1261;69115;-58
2023/10/13 13:12:42;;;;;;;4.60;2.50;;;;;;;20.86;80.46;100160.73;105007;1261;75674;-59
2023/10/13 13:15:11;;;;;;;5.60;2.60;;;;;;;20.83;80.48;100156.38;105081;1261;82921;-61
2023/10/13 13:17:40;;;;;;;5.20;2.60;;;;;;;20.79;80.41;100153.49;105035;1264;72891;-59
2023/10/13 13:20:11;;;;;;;5.80;2.50;;;;;;;20.74;80.67;100158.17;105000;1261;69174;-58
2023/10/13 13:22:39;;;;;;;4.70;2.70;;;;;;;20.70;80.68;100157.55;105050;1260;69190;-59
2023/10/13 13:25:10;;;;;;;3.30;2.30;;;;;;;20.67;80.82;100151.84;104933;1262;75049;-59
2023/10/13 13:27:41;;;;;;;5.90;2.80;;;;;;;20.63;80.92;100153.92;106672;1261;81561;-59
2023/10/13 13:30:12;;;;;;;5.90;2.30;;;;;;;20.59;81.01;100148.71;105008;1260;70987;-58
2023/10/13 13:32:41;;;;;;;4.00;2.50;;;;;;;20.56;80.90;100145.11;104930;1264;69221;-58
2023/10/13 13:35:13;;;;;;;5.60;2.70;;;;;;;20.51;80.90;100137.65;105026;1264;69183;-59
2023/10/13 13:37:44;;;;;;;4.80;3.00;;;;;;;20.48;81.12;100134.01;105025;1262;72855;-60
2023/10/13 13:40:14;;;;;;;8.30;2.80;;;;;;;20.45;81.15;100132.09;105064;1261;83001;-60
2023/10/13 13:42:43;;;;;;;6.10;2.80;;;;;;;20.43;81.35;100131.35;105056;1259;72110;-60
2023/10/13 13:45:22;;;;;;;4.40;2.90;;;;;;;20.42;81.46;100123.30;105082;1263;69165;-60
2023/10/13 13:47:53;;;;;;;8.30;2.70;;;;;;;20.42;81.64;100115.33;105041;1262;69125;-60
2023/10/13 13:50:30;;;;;;;4.90;2.30;;;;;;;20.40;81.59;100114.95;105040;1263;73794;-60
2023/10/13 13:53:01;;;;;;;3.40;2.30;;;;;;;20.41;81.72;100116.52;105076;1263;82838;-60
2023/10/13 13:55:33;;;;;;;5.00;2.90;;;;;;;20.39;81.68;100116.11;105018;1260;73027;-59
2023/10/13 13:58:07;;;;;;;6.30;2.80;;;;;;;20.39;81.73;100114.53;105037;1261;69145;-60
2023/10/13 14:00:37;;;;;;;5.20;2.70;;;;;;;20.40;81.90;100109.27;105059;1259;69057;-60
2023/10/13 14:03:26;;;;;;;6.10;2.50;;;;;;;20.42;82.03;100105.88;105037;1260;74780;-60
2023/10/13 14:05:55;;;;;;;5.60;2.50;;;;;;;20.46;82.04;100100.79;105040;1261;83304;-60
2023/10/13 14:08:25;;;;;;;5.40;2.90;;;;;;;20.50;82.27;100098.13;105005;1261;71810;-59
2023/10/13 14:13:49;;;;;;;5.50;3.10;;;;;;;20.54;82.67;100097.15;105027;1262;69176;-59
2023/10/13 14:16:19;;;;;;;5.40;2.80;;;;;;;20.53;82.65;100092.81;105006;1264;73780;-59
2023/10/13 14:18:48;;;;;;;6.00;2.80;;;;;;;20.53;82.77;100091.05;105022;1261;81691;-59
2023/10/13 14:21:17;;;;;;;4.50;3.00;;;;;;;20.54;82.84;100086.55;105035;1260;71932;-59
2023/10/13 14:23:51;;;;;;;8.70;3.20;;;;;;;20.54;82.99;100081.40;105068;1263;69132;-60
2023/10/13 14:26:21;;;;;;;4.40;3.10;;;;;;;20.52;82.85;100074.56;105085;1261;69054;-60
2023/10/13 14:29:00;;;;;;;5.60;3.30;;;;;;;20.50;82.93;100073.66;105070;1261;75019;-60
2023/10/13 14:31:32;;;;;;;5.90;3.20;;;;;;;20.47;82.96;100068.42;105051;1263;81960;-60
2023/10/13 14:34:00;;;;;;;4.20;3.40;;;;;;;20.46;83.11;100062.45;105083;1261;73120;-60
2023/10/13 14:36:28;;;;;;;7.70;3.30;;;;;;;20.45;83.20;100062.02;105070;1261;69129;-60
2023/10/13 14:38:57;;;;;;;4.00;2.90;;;;;;;20.41;83.19;100061.67;105085;1257;69087;-60
2023/10/13 14:41:25;;;;;;;5.60;3.20;;;;;;;20.37;83.22;100055.96;105141;1261;73775;-60
2023/10/13 14:43:56;;;;;;;5.70;2.90;;;;;;;20.33;83.30;100052.95;105116;1262;82859;-60
2023/10/13 14:46:25;;;;;;;7.00;3.60;;;;;;;20.29;83.49;100054.48;105059;1261;73162;-60
2023/10/13 14:48:53;;;;;;;4.90;3.30;;;;;;;20.27;83.58;100049.99;105060;1264;69135;-60
2023/10/13 14:51:22;;;;;;;8.90;3.30;;;;;;;20.25;83.77;100046.45;105122;1257;69195;-60
2023/10/13 14:53:55;;;;;;;6.20;3.40;;;;;;;20.23;83.69;100038.67;105104;1260;75097;-60
2023/10/13 14:56:26;;;;;;;6.10;3.50;;;;;;;20.21;83.79;100036.90;105011;1263;82537;-60
2023/10/13 14:58:54;;;;;;;;;;;;;;;20.17;83.73;100038.83;105081;1260;73158;-60